Terminal Aerodrome Forecast
Issued by NWS Billings, MT

Home | Current Version | Previous Version | Text Only | Print | Product List | Glossary Off
Versions: 1 2 3 4 5 6 7 8 9 10 11 12 13 14 15 16 17 18 19 20

000
FTUS45 KBYZ 161126
TAFMLS
TAF
KMLS 161126Z 1612/1712 13016KT P6SM SKC
     FM161500 16015G25KT P6SM SCT200
     FM170800 34011KT P6SM -SHRA BKN090=

USA.gov is the U.S. government's official web portal to all federal, state and local government web resources and services.